createdAt,value
2018-03-31T00:00:30.065Z,989.14
2018-03-31T00:01:10.449Z,989.19
2018-03-31T00:01:50.850Z,989.19
2018-03-31T00:02:31.296Z,989.21
2018-03-31T00:03:11.600Z,989.26
2018-03-31T00:03:52.055Z,989.25
2018-03-31T00:04:32.472Z,989.25
2018-03-31T00:05:12.870Z,989.3
2018-03-31T00:05:53.183Z,989.3
2018-03-31T00:06:33.646Z,989.3
2018-03-31T00:07:14.067Z,989.33
2018-03-31T00:07:54.557Z,989.29
2018-03-31T00:08:34.855Z,989.36
2018-03-31T00:09:15.237Z,989.29
2018-03-31T00:09:55.653Z,989.36
2018-03-31T00:10:36.108Z,989.32
2018-03-31T00:11:16.453Z,989.34
2018-03-31T00:11:59.499Z,989.32
2018-03-31T00:12:39.860Z,989.34
2018-03-31T00:13:20.242Z,989.36
2018-03-31T00:14:00.636Z,989.36
2018-03-31T00:14:41.024Z,989.38
2018-03-31T00:15:21.456Z,989.39
2018-03-31T00:16:01.935Z,989.38
2018-03-31T00:16:42.360Z,989.33
2018-03-31T00:17:22.735Z,989.37
2018-03-31T00:18:03.091Z,989.4
2018-03-31T00:18:43.573Z,989.38
2018-03-31T00:19:24.043Z,989.39
2018-03-31T00:20:04.485Z,989.32
2018-03-31T00:20:44.819Z,989.35
2018-03-31T00:21:25.262Z,989.34
2018-03-31T00:22:05.593Z,989.34
2018-03-31T00:22:46.047Z,989.36
2018-03-31T00:23:26.460Z,989.3
2018-03-31T00:24:06.874Z,989.34
2018-03-31T00:24:47.278Z,989.31
2018-03-31T00:25:27.682Z,989.34
2018-03-31T00:26:08.078Z,989.28
2018-03-31T00:26:48.477Z,989.33
2018-03-31T00:27:28.972Z,989.29
2018-03-31T00:28:09.385Z,989.3
2018-03-31T00:28:49.695Z,989.34
2018-03-31T00:29:30.160Z,989.32
2018-03-31T00:30:10.591Z,989.29
2018-03-31T00:30:51.067Z,989.29
2018-03-31T00:31:31.510Z,989.33
2018-03-31T00:32:11.867Z,989.29
2018-03-31T00:32:52.323Z,989.31
2018-03-31T00:33:32.754Z,989.31
2018-03-31T00:34:13.079Z,989.31
2018-03-31T00:34:53.496Z,989.34
2018-03-31T00:35:33.978Z,989.29
2018-03-31T00:36:14.373Z,989.3
2018-03-31T00:36:54.787Z,989.28
2018-03-31T00:37:35.226Z,989.3
2018-03-31T00:38:15.636Z,989.29
2018-03-31T00:38:56.058Z,989.27
2018-03-31T00:39:36.473Z,989.26
2018-03-31T00:40:16.843Z,989.29
2018-03-31T00:40:57.349Z,989.27
2018-03-31T00:41:37.705Z,989.23
2018-03-31T00:42:18.111Z,989.22
2018-03-31T00:42:58.517Z,989.25
2018-03-31T00:43:39.006Z,989.24
2018-03-31T00:44:19.406Z,989.22
2018-03-31T00:44:59.805Z,989.21
2018-03-31T00:45:40.118Z,989.2
2018-03-31T00:46:20.600Z,989.17
2018-03-31T00:47:01.045Z,989.19
2018-03-31T00:47:41.448Z,989.2
2018-03-31T00:48:21.806Z,989.24
2018-03-31T00:49:02.235Z,989.19
2018-03-31T00:49:42.699Z,989.24
2018-03-31T00:50:23.066Z,989.19
2018-03-31T00:51:03.508Z,989.2
2018-03-31T00:51:44.088Z,989.16
2018-03-31T00:52:24.418Z,989.17
2018-03-31T00:53:04.876Z,989.13
2018-03-31T00:53:45.257Z,989.15
2018-03-31T00:54:25.679Z,989.13
2018-03-31T00:55:06.125Z,989.13
2018-03-31T00:55:46.557Z,989.09
2018-03-31T00:56:26.889Z,989.13
2018-03-31T00:57:07.728Z,989.12
2018-03-31T00:57:48.116Z,989.15
2018-03-31T00:58:28.631Z,989.13
2018-03-31T00:59:09.117Z,989.13
2018-03-31T00:59:49.444Z,989.12
2018-03-31T01:00:29.903Z,989.13
2018-03-31T01:01:10.413Z,989.11
2018-03-31T01:01:50.914Z,989.12
2018-03-31T01:02:31.306Z,989.12
2018-03-31T01:03:11.869Z,989.11
2018-03-31T01:03:52.260Z,989.1
2018-03-31T01:04:32.628Z,989.13
2018-03-31T01:05:12.998Z,989.08
2018-03-31T01:05:53.515Z,989.11
2018-03-31T01:06:33.893Z,989.13
2018-03-31T01:07:14.409Z,989.13
2018-03-31T01:07:54.778Z,989.11
2018-03-31T01:08:35.154Z,989.15
2018-03-31T01:09:15.537Z,989.14
2018-03-31T01:09:55.968Z,989.16
2018-03-31T01:10:36.368Z,989.16
2018-03-31T01:11:16.806Z,989.16
2018-03-31T01:11:57.209Z,989.2
2018-03-31T01:12:37.643Z,989.17
2018-03-31T01:13:18.038Z,989.21
2018-03-31T01:13:58.460Z,989.15
2018-03-31T01:14:38.856Z,989.16
2018-03-31T01:15:19.242Z,989.17
2018-03-31T01:15:59.618Z,989.19
2018-03-31T01:16:39.982Z,989.18
2018-03-31T01:17:20.448Z,989.2
2018-03-31T01:18:00.846Z,989.19
2018-03-31T01:18:41.269Z,989.2
2018-03-31T01:19:21.621Z,989.2
2018-03-31T01:20:01.997Z,989.19
2018-03-31T01:20:42.366Z,989.16
2018-03-31T01:21:22.799Z,989.17
2018-03-31T01:22:03.133Z,989.15
2018-03-31T01:22:43.547Z,989.16
2018-03-31T01:23:23.981Z,989.18
2018-03-31T01:24:04.358Z,989.13
2018-03-31T01:24:44.792Z,989.17
2018-03-31T01:25:25.228Z,989.17
2018-03-31T01:26:05.668Z,989.21
2018-03-31T01:26:45.999Z,989.23
2018-03-31T01:27:26.438Z,989.23
2018-03-31T01:28:06.853Z,989.26
2018-03-31T01:28:47.294Z,989.23
2018-03-31T01:29:27.690Z,989.26
2018-03-31T01:30:08.100Z,989.27
2018-03-31T01:30:48.499Z,989.26
2018-03-31T01:31:28.938Z,989.25
2018-03-31T01:32:09.263Z,989.29
2018-03-31T01:32:49.760Z,989.27
2018-03-31T01:33:30.118Z,989.27
2018-03-31T01:34:10.487Z,989.28
2018-03-31T01:34:50.925Z,989.32
2018-03-31T01:35:31.337Z,989.32
2018-03-31T01:36:11.727Z,989.28
2018-03-31T01:36:52.166Z,989.31
2018-03-31T01:37:32.573Z,989.35
2018-03-31T01:38:12.966Z,989.29
2018-03-31T01:38:53.388Z,989.31
2018-03-31T01:39:33.782Z,989.29
2018-03-31T01:40:14.210Z,989.26
2018-03-31T01:40:54.668Z,989.26
2018-03-31T01:41:35.053Z,989.23
2018-03-31T01:42:15.410Z,989.23
2018-03-31T01:42:55.768Z,989.21
2018-03-31T01:43:36.380Z,989.17
2018-03-31T01:44:16.842Z,989.17
2018-03-31T01:44:57.151Z,989.19
2018-03-31T01:45:37.554Z,989.19
2018-03-31T01:46:18.079Z,989.19
2018-03-31T01:46:58.500Z,989.19
2018-03-31T01:47:38.899Z,989.22
2018-03-31T01:48:19.428Z,989.21
2018-03-31T01:48:59.810Z,989.22
2018-03-31T01:49:40.245Z,989.25
2018-03-31T01:50:20.590Z,989.22
2018-03-31T01:51:01.071Z,989.2
2018-03-31T01:51:41.579Z,989.18
2018-03-31T01:52:21.986Z,989.2
2018-03-31T01:53:02.399Z,989.2
2018-03-31T01:53:42.836Z,989.21
2018-03-31T01:54:23.283Z,989.19
2018-03-31T01:55:03.855Z,989.18
2018-03-31T01:55:44.346Z,989.16
2018-03-31T01:56:24.853Z,989.15
2018-03-31T01:57:05.210Z,989.17
2018-03-31T01:57:45.555Z,989.2
2018-03-31T01:58:25.991Z,989.2
2018-03-31T01:59:06.364Z,989.18
2018-03-31T01:59:46.785Z,989.2
2018-03-31T02:00:27.147Z,989.18
2018-03-31T02:01:07.610Z,989.2
2018-03-31T02:01:48.013Z,989.21
2018-03-31T02:02:28.474Z,989.18
2018-03-31T02:03:08.888Z,989.21
2018-03-31T02:03:49.324Z,989.24
2018-03-31T02:04:29.690Z,989.23
2018-03-31T02:05:10.129Z,989.23
2018-03-31T02:05:50.547Z,989.24
2018-03-31T02:06:31.020Z,989.26
2018-03-31T02:07:11.358Z,989.21
2018-03-31T02:07:51.753Z,989.21
2018-03-31T02:08:32.289Z,989.21
2018-03-31T02:09:12.696Z,989.24
2018-03-31T02:09:53.034Z,989.25
2018-03-31T02:10:33.499Z,989.23
2018-03-31T02:11:13.880Z,989.25
2018-03-31T02:11:54.303Z,989.25
2018-03-31T02:12:34.746Z,989.26
2018-03-31T02:13:15.097Z,989.28
2018-03-31T02:13:55.558Z,989.23
2018-03-31T02:14:38.990Z,989.27
2018-03-31T02:15:19.489Z,989.25
2018-03-31T02:16:01.951Z,989.23
2018-03-31T02:16:44.781Z,989.25
2018-03-31T02:17:28.029Z,989.21
2018-03-31T02:18:11.485Z,989.2
2018-03-31T02:18:53.284Z,989.17
2018-03-31T02:19:34.058Z,989.17
2018-03-31T02:20:14.360Z,989.23
2018-03-31T02:20:54.826Z,989.2
2018-03-31T02:21:35.244Z,989.2
2018-03-31T02:22:15.681Z,989.22
2018-03-31T02:22:56.129Z,989.22
2018-03-31T02:23:36.593Z,989.18
2018-03-31T02:24:16.937Z,989.16
2018-03-31T02:24:57.393Z,989.21
2018-03-31T02:25:37.680Z,989.2
2018-03-31T02:26:18.215Z,989.19
2018-03-31T02:26:58.471Z,989.19
2018-03-31T02:27:38.925Z,989.24
2018-03-31T02:28:19.274Z,989.2
2018-03-31T02:28:59.666Z,989.23
2018-03-31T02:29:40.103Z,989.23
2018-03-31T02:30:20.503Z,989.24
2018-03-31T02:31:00.941Z,989.24
2018-03-31T02:31:41.286Z,989.22
2018-03-31T02:32:21.695Z,989.22
2018-03-31T02:33:02.128Z,989.21
2018-03-31T02:33:42.577Z,989.28
2018-03-31T02:34:22.974Z,989.29
2018-03-31T02:35:03.367Z,989.3
2018-03-31T02:35:43.773Z,989.26
2018-03-31T02:36:24.181Z,989.27
2018-03-31T02:37:04.577Z,989.25
2018-03-31T02:37:45.000Z,989.23
2018-03-31T02:38:25.448Z,989.26
2018-03-31T02:39:05.804Z,989.25
2018-03-31T02:39:46.170Z,989.25
2018-03-31T02:40:26.644Z,989.25
2018-03-31T02:41:07.041Z,989.27
2018-03-31T02:41:47.492Z,989.24
2018-03-31T02:42:27.887Z,989.25
2018-03-31T02:43:08.289Z,989.23
2018-03-31T02:43:48.772Z,989.2
2018-03-31T02:44:29.226Z,989.24
2018-03-31T02:45:09.678Z,989.22
2018-03-31T02:45:50.121Z,989.27
2018-03-31T02:46:30.455Z,989.24
2018-03-31T02:47:10.895Z,989.26
2018-03-31T02:47:51.363Z,989.24
2018-03-31T02:48:31.682Z,989.22
2018-03-31T02:49:12.978Z,989.25
2018-03-31T02:49:53.441Z,989.21
2018-03-31T02:50:33.828Z,989.19
2018-03-31T02:51:14.273Z,989.21
2018-03-31T02:51:54.594Z,989.19
2018-03-31T02:52:35.033Z,989.2
2018-03-31T02:53:15.434Z,989.21
2018-03-31T02:53:55.787Z,989.24
2018-03-31T02:54:36.262Z,989.21
2018-03-31T02:55:16.605Z,989.23
2018-03-31T02:55:58.771Z,989.25
2018-03-31T02:56:39.177Z,989.23
2018-03-31T02:57:19.577Z,989.27
2018-03-31T02:57:59.962Z,989.25
2018-03-31T02:58:40.367Z,989.24
2018-03-31T02:59:20.740Z,989.23
2018-03-31T03:00:01.116Z,989.26
2018-03-31T03:00:41.518Z,989.28
2018-03-31T03:01:21.949Z,989.26
2018-03-31T03:02:02.325Z,989.28
2018-03-31T03:02:43.086Z,989.26
2018-03-31T03:03:23.255Z,989.27
2018-03-31T03:04:03.627Z,989.28
2018-03-31T03:04:44.031Z,989.26
2018-03-31T03:05:24.379Z,989.25
2018-03-31T03:06:04.813Z,989.25
2018-03-31T03:06:45.231Z,989.26
2018-03-31T03:07:25.680Z,989.24
2018-03-31T03:08:06.327Z,989.27
2018-03-31T03:08:46.813Z,989.25
2018-03-31T03:09:27.209Z,989.25
2018-03-31T03:10:07.583Z,989.25
2018-03-31T03:10:48.023Z,989.24
2018-03-31T03:11:28.397Z,989.26
2018-03-31T03:12:08.803Z,989.3
2018-03-31T03:12:49.251Z,989.28
2018-03-31T03:13:29.632Z,989.29
2018-03-31T03:14:10.019Z,989.33
2018-03-31T03:14:50.410Z,989.35
2018-03-31T03:15:30.825Z,989.34
2018-03-31T03:16:11.266Z,989.33
2018-03-31T03:16:51.622Z,989.37
2018-03-31T03:17:32.081Z,989.36
2018-03-31T03:18:12.576Z,989.35
2018-03-31T03:18:56.097Z,989.38
2018-03-31T03:19:36.511Z,989.39
2018-03-31T03:20:16.888Z,989.4
2018-03-31T03:20:57.309Z,989.45
2018-03-31T03:21:37.848Z,989.47
2018-03-31T03:22:18.631Z,989.45
2018-03-31T03:23:00.673Z,989.41
2018-03-31T03:23:41.624Z,989.44
2018-03-31T03:24:22.038Z,989.44
2018-03-31T03:25:02.458Z,989.39
2018-03-31T03:25:42.819Z,989.39
2018-03-31T03:26:23.210Z,989.35
2018-03-31T03:27:03.960Z,989.39
2018-03-31T03:27:44.463Z,989.37
2018-03-31T03:28:24.956Z,989.39
2018-03-31T03:29:05.446Z,989.41
2018-03-31T03:29:45.843Z,989.43
2018-03-31T03:30:26.332Z,989.39
2018-03-31T03:31:06.648Z,989.41
2018-03-31T03:31:47.575Z,989.41
2018-03-31T03:32:33.131Z,989.44
2018-03-31T03:33:17.145Z,989.45
2018-03-31T03:33:56.324Z,989.46
2018-03-31T03:34:37.207Z,989.5
2018-03-31T03:35:17.613Z,989.48
2018-03-31T03:35:58.043Z,989.53
2018-03-31T03:36:38.457Z,989.52
2018-03-31T03:37:18.990Z,989.53
2018-03-31T03:37:59.379Z,989.53
2018-03-31T03:38:39.767Z,989.53
2018-03-31T03:39:20.681Z,989.55
2018-03-31T03:40:00.739Z,989.53
2018-03-31T03:40:41.156Z,989.52
2018-03-31T03:41:21.567Z,989.54
2018-03-31T03:42:01.964Z,989.54
2018-03-31T03:42:42.484Z,989.56
2018-03-31T03:43:22.810Z,989.59
2018-03-31T03:44:03.204Z,989.59
2018-03-31T03:44:43.692Z,989.61
2018-03-31T03:45:24.150Z,989.63
2018-03-31T03:46:04.683Z,989.59
2018-03-31T03:46:45.238Z,989.58
2018-03-31T03:47:25.654Z,989.61
2018-03-31T03:48:06.131Z,989.61
2018-03-31T03:48:46.529Z,989.61
2018-03-31T03:49:26.950Z,989.62
2018-03-31T03:50:07.379Z,989.61
2018-03-31T03:50:47.739Z,989.63
2018-03-31T03:51:28.152Z,989.65
2018-03-31T03:52:08.542Z,989.6
2018-03-31T03:52:48.942Z,989.63
2018-03-31T03:53:29.361Z,989.64
2018-03-31T03:54:09.750Z,989.62
2018-03-31T03:54:50.341Z,989.65
2018-03-31T03:55:30.868Z,989.64
2018-03-31T03:56:11.208Z,989.69
2018-03-31T03:56:51.647Z,989.68
2018-03-31T03:57:32.103Z,989.68
2018-03-31T03:58:12.493Z,989.65
2018-03-31T03:58:52.964Z,989.72
2018-03-31T03:59:33.352Z,989.73
2018-03-31T04:00:13.793Z,989.67
2018-03-31T04:00:54.139Z,989.69
2018-03-31T04:01:34.565Z,989.7
2018-03-31T04:02:15.058Z,989.68
2018-03-31T04:02:55.474Z,989.67
2018-03-31T04:03:35.858Z,989.65
2018-03-31T04:43:54.617Z,989.52
2018-03-31T04:44:43.197Z,989.52
2018-03-31T04:45:30.423Z,989.59
2018-03-31T04:46:18.574Z,989.6
2018-03-31T04:50:57.604Z,989.47
2018-03-31T04:51:40.091Z,989.47
2018-03-31T04:52:20.445Z,989.49
2018-03-31T04:53:00.891Z,989.44
2018-03-31T04:53:41.426Z,989.47
2018-03-31T04:54:21.868Z,989.46
2018-03-31T04:55:02.417Z,989.44
2018-03-31T04:55:42.846Z,989.47
2018-03-31T04:56:23.618Z,989.47
2018-03-31T04:57:03.769Z,989.45
2018-03-31T04:57:44.128Z,989.47
2018-03-31T04:58:24.607Z,989.48
2018-03-31T04:59:05.014Z,989.5
2018-03-31T04:59:45.382Z,989.5
2018-03-31T05:00:25.798Z,989.47
2018-03-31T05:01:06.288Z,989.5
2018-03-31T05:01:46.637Z,989.47
2018-03-31T05:02:27.048Z,989.5
2018-03-31T05:03:07.490Z,989.53
2018-03-31T05:03:47.912Z,989.54
2018-03-31T05:04:28.390Z,989.54
2018-03-31T05:05:08.806Z,989.55
2018-03-31T05:05:49.239Z,989.57
2018-03-31T05:06:29.643Z,989.54
2018-03-31T05:07:10.059Z,989.59
2018-03-31T05:07:50.482Z,989.55
2018-03-31T05:08:30.860Z,989.57
2018-03-31T05:09:11.293Z,989.53
2018-03-31T05:09:51.672Z,989.56
2018-03-31T05:10:32.067Z,989.53
2018-03-31T05:11:12.400Z,989.54
2018-03-31T05:11:52.779Z,989.55
2018-03-31T05:12:33.179Z,989.52
2018-03-31T05:13:13.611Z,989.5
2018-03-31T05:13:54.090Z,989.5
2018-03-31T05:14:34.467Z,989.51
2018-03-31T05:15:14.833Z,989.54
2018-03-31T05:15:55.239Z,989.56
2018-03-31T05:16:35.691Z,989.58
2018-03-31T05:17:16.080Z,989.53
2018-03-31T05:17:56.544Z,989.55
2018-03-31T05:18:36.832Z,989.53
2018-03-31T05:19:17.287Z,989.53
2018-03-31T05:19:57.650Z,989.62
2018-03-31T05:20:38.089Z,989.6
2018-03-31T05:21:18.501Z,989.58
2018-03-31T05:21:59.115Z,989.62
2018-03-31T05:22:39.350Z,989.56
2018-03-31T05:23:19.740Z,989.61
2018-03-31T05:24:00.170Z,989.61
2018-03-31T05:24:40.539Z,989.6
2018-03-31T05:25:20.953Z,989.62
2018-03-31T05:26:01.497Z,989.61
2018-03-31T05:26:41.893Z,989.6
2018-03-31T05:27:22.346Z,989.6
2018-03-31T05:28:02.712Z,989.58
2018-03-31T05:28:43.095Z,989.62
2018-03-31T05:29:23.506Z,989.59
2018-03-31T05:30:03.945Z,989.59
2018-03-31T05:30:44.325Z,989.61
2018-03-31T05:31:24.721Z,989.58
2018-03-31T05:32:05.163Z,989.56
2018-03-31T05:32:45.532Z,989.55
2018-03-31T05:33:25.946Z,989.54
2018-03-31T05:34:06.346Z,989.55
2018-03-31T05:34:46.753Z,989.56
2018-03-31T05:35:27.131Z,989.54
2018-03-31T05:36:07.551Z,989.5
2018-03-31T05:36:47.938Z,989.54
2018-03-31T05:37:28.339Z,989.49
2018-03-31T05:38:08.766Z,989.54
2018-03-31T05:38:49.187Z,989.52
2018-03-31T05:39:29.609Z,989.49
2018-03-31T05:40:09.988Z,989.51
2018-03-31T05:40:50.382Z,989.54
2018-03-31T05:41:32.361Z,989.55
2018-03-31T05:42:12.760Z,989.56
2018-03-31T05:42:53.186Z,989.53
2018-03-31T05:43:33.615Z,989.55
2018-03-31T05:44:14.032Z,989.55
2018-03-31T05:44:54.416Z,989.56
2018-03-31T05:45:34.883Z,989.55
2018-03-31T05:46:15.236Z,989.56
2018-03-31T05:46:55.672Z,989.54
2018-03-31T05:47:36.027Z,989.6
2018-03-31T05:48:16.507Z,989.59
2018-03-31T05:48:56.947Z,989.62
2018-03-31T05:49:37.360Z,989.63
2018-03-31T05:50:17.705Z,989.61
2018-03-31T05:50:58.102Z,989.63
2018-03-31T05:51:38.490Z,989.62
2018-03-31T05:52:18.896Z,989.66
2018-03-31T05:52:59.311Z,989.64
2018-03-31T05:53:39.721Z,989.7
2018-03-31T05:54:20.113Z,989.71
2018-03-31T05:55:00.548Z,989.72
2018-03-31T05:55:40.954Z,989.71
2018-03-31T05:56:21.365Z,989.75
2018-03-31T05:57:01.683Z,989.72
2018-03-31T05:57:42.114Z,989.77
2018-03-31T05:58:22.640Z,989.78
2018-03-31T05:59:02.872Z,989.74
2018-03-31T05:59:43.277Z,989.75
2018-03-31T06:00:23.639Z,989.77
2018-03-31T06:01:04.056Z,989.74
2018-03-31T06:01:44.832Z,989.74
2018-03-31T06:02:25.278Z,989.75
2018-03-31T06:03:05.619Z,989.77
2018-03-31T06:03:46.108Z,989.73
2018-03-31T06:04:26.568Z,989.75
2018-03-31T06:05:06.958Z,989.73
2018-03-31T06:05:47.930Z,989.74
2018-03-31T06:06:28.292Z,989.79
2018-03-31T06:07:08.678Z,989.72
2018-03-31T06:07:48.976Z,989.75
2018-03-31T06:08:29.394Z,989.73
2018-03-31T06:09:09.837Z,989.73
2018-03-31T06:09:50.195Z,989.71
2018-03-31T06:10:30.607Z,989.7
2018-03-31T06:11:11.063Z,989.7
2018-03-31T06:11:51.453Z,989.7
2018-03-31T06:12:31.866Z,989.75
2018-03-31T06:13:12.279Z,989.75
2018-03-31T06:13:52.681Z,989.73
2018-03-31T06:14:33.107Z,989.74
2018-03-31T06:15:13.584Z,989.73
2018-03-31T06:15:53.983Z,989.71
2018-03-31T06:16:34.342Z,989.73
2018-03-31T06:17:14.778Z,989.76
2018-03-31T06:17:55.162Z,989.69
2018-03-31T06:18:35.573Z,989.74
2018-03-31T06:19:15.976Z,989.66
2018-03-31T06:19:56.348Z,989.62
2018-03-31T06:20:36.789Z,989.69
2018-03-31T06:21:17.259Z,989.65
2018-03-31T06:21:57.687Z,989.65
2018-03-31T06:22:38.302Z,989.66
2018-03-31T06:23:18.775Z,989.67
2018-03-31T06:23:59.175Z,989.66
2018-03-31T06:24:39.572Z,989.67
2018-03-31T06:25:20.034Z,989.66
2018-03-31T06:26:00.442Z,989.68
2018-03-31T06:26:40.868Z,989.68
2018-03-31T06:27:21.267Z,989.73
2018-03-31T06:28:01.662Z,989.74
2018-03-31T06:28:42.041Z,989.77
2018-03-31T06:29:22.487Z,989.72
2018-03-31T06:30:02.836Z,989.73
2018-03-31T06:30:43.369Z,989.79
2018-03-31T06:31:23.741Z,989.79
2018-03-31T06:32:04.112Z,989.81
2018-03-31T06:32:44.577Z,989.83
2018-03-31T06:33:25.565Z,989.87
2018-03-31T06:34:05.766Z,989.9
2018-03-31T06:34:47.204Z,989.88
2018-03-31T06:35:27.406Z,989.92
2018-03-31T06:36:07.909Z,989.88
2018-03-31T06:36:49.151Z,989.94
2018-03-31T06:37:29.618Z,989.96
2018-03-31T06:38:10.036Z,990.01
2018-03-31T06:38:50.406Z,990.03
2018-03-31T06:39:30.877Z,990.04
2018-03-31T06:40:12.201Z,990.01
2018-03-31T06:40:53.972Z,989.98
2018-03-31T06:41:34.480Z,989.99
2018-03-31T06:42:15.092Z,990
2018-03-31T06:42:55.461Z,990
2018-03-31T06:43:35.869Z,989.99
2018-03-31T06:44:16.276Z,989.95
2018-03-31T06:44:56.673Z,989.94
2018-03-31T06:45:37.038Z,989.97
2018-03-31T06:46:17.558Z,989.94
2018-03-31T06:46:57.961Z,989.96
2018-03-31T06:47:39.520Z,989.97
2018-03-31T06:48:19.958Z,989.96
2018-03-31T06:49:00.337Z,989.98
2018-03-31T06:49:41.146Z,989.99
2018-03-31T06:50:22.192Z,989.97
2018-03-31T06:51:02.351Z,989.98
2018-03-31T06:51:42.753Z,990.01
2018-03-31T06:52:23.197Z,990.04
2018-03-31T06:53:03.610Z,990
2018-03-31T06:53:44.049Z,989.98
2018-03-31T06:54:24.453Z,990
2018-03-31T06:55:04.783Z,989.98
2018-03-31T06:55:45.245Z,990.03
2018-03-31T06:56:25.613Z,990.03
2018-03-31T06:57:06.567Z,990.05
2018-03-31T06:57:47.422Z,990.06
2018-03-31T06:58:28.110Z,990.05
2018-03-31T06:59:08.402Z,990.08
2018-03-31T06:59:48.980Z,990.08
2018-03-31T07:00:29.844Z,990.06
2018-03-31T07:01:10.258Z,990.08
2018-03-31T07:01:50.665Z,990.08
2018-03-31T07:02:31.123Z,990.12
2018-03-31T07:03:12.537Z,990.1
2018-03-31T07:03:52.952Z,990.13
2018-03-31T07:04:33.364Z,990.14
2018-03-31T07:05:13.784Z,990.13
2018-03-31T07:05:54.220Z,990.13
2018-03-31T07:06:34.671Z,990.12
2018-03-31T07:07:15.091Z,990.1
2018-03-31T07:07:55.461Z,990.13
2018-03-31T07:08:35.896Z,990.06
2018-03-31T07:09:16.316Z,990.02
2018-03-31T07:09:56.760Z,990.05
2018-03-31T07:10:37.127Z,990.03
2018-03-31T07:11:17.509Z,990.05
2018-03-31T07:11:58.430Z,990.02
2018-03-31T07:12:38.875Z,990.08
2018-03-31T07:13:19.328Z,990.08
2018-03-31T07:14:03.136Z,989.99
2018-03-31T07:14:43.500Z,990.05
2018-03-31T07:15:24.102Z,990.05
2018-03-31T07:16:05.792Z,990.05
2018-03-31T07:16:46.193Z,990.07
2018-03-31T07:17:28.383Z,990.07
2018-03-31T07:18:08.845Z,990.07
2018-03-31T07:18:49.254Z,990.08
2018-03-31T07:19:29.656Z,990.09
2018-03-31T07:20:10.086Z,990.1
2018-03-31T07:20:50.489Z,990.08
2018-03-31T07:21:30.903Z,990.11
2018-03-31T07:22:11.311Z,990.07
2018-03-31T07:22:51.714Z,990.1
2018-03-31T07:23:32.230Z,990.1
2018-03-31T07:24:12.606Z,990.14
2018-03-31T07:24:53.815Z,990.1
2018-03-31T07:25:34.335Z,990.17
2018-03-31T07:26:15.487Z,990.14
2018-03-31T07:26:55.714Z,990.15
2018-03-31T07:27:36.175Z,990.15
2018-03-31T07:28:17.086Z,990.27
2018-03-31T07:28:57.495Z,990.22
2018-03-31T07:29:37.931Z,990.22
2018-03-31T07:30:18.578Z,990.22
2018-03-31T07:30:59.009Z,990.22
2018-03-31T07:31:40.005Z,990.22
2018-03-31T07:32:20.681Z,990.27
2018-03-31T07:33:01.293Z,990.26
2018-03-31T07:33:41.711Z,990.28
2018-03-31T07:34:22.156Z,990.28
2018-03-31T07:35:02.683Z,990.29
2018-03-31T07:35:43.930Z,990.34
2018-03-31T07:36:24.757Z,990.36
2018-03-31T07:37:05.210Z,990.37
2018-03-31T07:37:45.556Z,990.39
2018-03-31T07:38:26.069Z,990.35
2018-03-31T07:46:04.231Z,990.39
2018-03-31T07:46:57.014Z,990.42
2018-03-31T07:47:39.318Z,990.38
2018-03-31T07:48:22.611Z,990.44
2018-03-31T07:49:02.408Z,990.46
2018-03-31T07:49:43.297Z,990.42
2018-03-31T07:50:25.173Z,990.43
2018-03-31T07:51:05.126Z,990.48
2018-03-31T07:53:47.711Z,990.48
2018-03-31T07:54:48.363Z,990.48
2018-03-31T07:56:54.930Z,990.5
2018-03-31T07:57:42.858Z,990.55
2018-03-31T07:58:35.559Z,990.5
2018-03-31T07:59:24.991Z,990.46
2018-03-31T08:00:17.958Z,990.51
2018-03-31T08:00:57.341Z,990.46
2018-03-31T08:14:49.750Z,990.47
2018-03-31T08:15:38.396Z,990.51
2018-03-31T08:16:25.645Z,990.5
2018-03-31T08:17:14.905Z,990.48
2018-03-31T08:20:27.097Z,990.49
2018-03-31T08:21:15.659Z,990.5
2018-03-31T08:22:03.520Z,990.48
2018-03-31T08:22:45.151Z,990.43
2018-03-31T08:23:26.337Z,990.45
2018-03-31T08:24:06.892Z,990.48
2018-03-31T08:24:47.318Z,990.48
2018-03-31T08:25:27.698Z,990.51
2018-03-31T08:26:08.103Z,990.48
2018-03-31T08:26:48.778Z,990.45
2018-03-31T08:27:29.207Z,990.47
2018-03-31T08:28:09.567Z,990.47
2018-03-31T08:28:49.946Z,990.44
2018-03-31T08:29:33.467Z,990.45
2018-03-31T08:40:37.622Z,990.5
2018-03-31T08:50:13.554Z,990.46
2018-03-31T08:52:55.404Z,990.44
2018-03-31T08:53:43.370Z,990.42
2018-03-31T08:54:33.177Z,990.48
2018-03-31T08:55:17.002Z,990.42
2018-03-31T08:55:56.813Z,990.46
2018-03-31T08:56:37.218Z,990.45
2018-03-31T08:57:18.197Z,990.47
2018-03-31T08:57:58.581Z,990.46
2018-03-31T08:58:39.296Z,990.4
2018-03-31T08:59:20.066Z,990.46
2018-03-31T09:00:00.523Z,990.45
2018-03-31T09:00:40.975Z,990.44
2018-03-31T09:01:21.414Z,990.38
2018-03-31T09:02:01.837Z,990.38
2018-03-31T09:02:42.299Z,990.35
2018-03-31T09:03:22.787Z,990.41
2018-03-31T09:04:03.112Z,990.33
2018-03-31T09:04:43.707Z,990.42
2018-03-31T09:05:23.982Z,990.42
2018-03-31T09:07:51.154Z,990.34
2018-03-31T09:08:42.455Z,990.3
2018-03-31T09:11:14.327Z,990.33
2018-03-31T09:15:32.910Z,990.39
2018-03-31T09:20:44.936Z,990.41
2018-03-31T09:23:15.452Z,990.45
2018-03-31T09:24:01.863Z,990.4
2018-03-31T09:24:50.194Z,990.4
2018-03-31T09:25:32.733Z,990.44
2018-03-31T09:26:16.395Z,990.46
2018-03-31T09:26:57.636Z,990.41
2018-03-31T09:39:20.917Z,990.34
2018-03-31T09:40:01.324Z,990.36
2018-03-31T09:40:41.630Z,990.34
2018-03-31T09:41:22.073Z,990.34
2018-03-31T09:42:02.477Z,990.34
2018-03-31T09:42:42.857Z,990.34
2018-03-31T09:43:23.244Z,990.32
2018-03-31T09:44:18.228Z,990.36
2018-03-31T09:44:58.696Z,990.32
2018-03-31T09:45:39.063Z,990.36
2018-03-31T09:46:19.470Z,990.33
2018-03-31T09:46:59.820Z,990.36
2018-03-31T09:47:40.273Z,990.31
2018-03-31T09:48:20.647Z,990.33
2018-03-31T09:49:01.062Z,990.36
2018-03-31T09:49:41.458Z,990.4
2018-03-31T09:50:21.879Z,990.3
2018-03-31T09:51:02.268Z,990.32
2018-03-31T09:51:42.673Z,990.32
2018-03-31T09:52:23.090Z,990.31
2018-03-31T09:53:03.472Z,990.33
2018-03-31T09:53:43.961Z,990.32
2018-03-31T09:54:24.454Z,990.37
2018-03-31T09:55:04.894Z,990.33
2018-03-31T09:55:45.361Z,990.38
2018-03-31T09:56:25.782Z,990.33
2018-03-31T09:57:06.192Z,990.34
2018-03-31T09:57:46.605Z,990.33
2018-03-31T09:58:27.053Z,990.38
2018-03-31T09:59:07.680Z,990.41
2018-03-31T09:59:49.064Z,990.39
2018-03-31T10:00:28.738Z,990.36
2018-03-31T10:01:09.183Z,990.41
2018-03-31T10:01:49.638Z,990.43
2018-03-31T10:02:30.131Z,990.37
2018-03-31T10:03:10.592Z,990.41
2018-03-31T10:03:51.068Z,990.43
2018-03-31T10:04:31.439Z,990.45
2018-03-31T10:05:11.864Z,990.41
2018-03-31T10:05:52.244Z,990.42
2018-03-31T10:46:05.284Z,990.45
2018-03-31T10:46:55.630Z,990.39
2018-03-31T10:47:35.205Z,990.41
2018-03-31T10:48:15.617Z,990.37
2018-03-31T10:48:57.116Z,990.36
2018-03-31T10:49:37.474Z,990.38
2018-03-31T10:50:17.917Z,990.37
2018-03-31T10:50:58.763Z,990.32
2018-03-31T10:51:40.240Z,990.39
2018-03-31T10:52:23.490Z,990.36
2018-03-31T10:53:04.318Z,990.41
2018-03-31T10:53:45.592Z,990.4
2018-03-31T10:54:26.646Z,990.4
2018-03-31T10:55:06.987Z,990.46
2018-03-31T10:55:47.804Z,990.4
2018-03-31T10:56:28.199Z,990.43
2018-03-31T10:57:08.719Z,990.44
2018-03-31T10:57:49.198Z,990.48
2018-03-31T10:58:30.471Z,990.43
2018-03-31T10:59:10.895Z,990.45
2018-03-31T10:59:52.374Z,990.48
2018-03-31T11:00:33.397Z,990.45
2018-03-31T11:01:12.931Z,990.46
2018-03-31T11:01:53.338Z,990.47
2018-03-31T11:02:34.765Z,990.48
2018-03-31T11:03:15.217Z,990.51
2018-03-31T11:03:55.648Z,990.48
2018-03-31T11:04:36.027Z,990.45
2018-03-31T11:05:16.451Z,990.48
2018-03-31T11:05:56.909Z,990.48
2018-03-31T11:06:37.330Z,990.46
2018-03-31T11:07:17.745Z,990.47